sensor_id;sensor_type;location;lat;lon;timestamp;pressure;altitude;pressure_sealevel;temperature;humidity
27202;BME280;14717;46.924;15.474;2023-04-26T00:02:01;97469.78;;;8.22;84.13
27202;BME280;14717;46.924;15.474;2023-04-26T00:04:28;97469.81;;;8.17;83.16
27202;BME280;14717;46.924;15.474;2023-04-26T00:06:54;97475.28;;;8.22;83.55
27202;BME280;14717;46.924;15.474;2023-04-26T00:09:20;97471.94;;;8.25;83.01
27202;BME280;14717;46.924;15.474;2023-04-26T00:11:45;97474.13;;;8.28;82.67
27202;BME280;14717;46.924;15.474;2023-04-26T00:14:11;97477.13;;;8.32;82.27
27202;BME280;14717;46.924;15.474;2023-04-26T00:16:36;97469.69;;;8.32;82.16
27202;BME280;14717;46.924;15.474;2023-04-26T00:19:02;97481.22;;;8.34;82.00
27202;BME280;14717;46.924;15.474;2023-04-26T00:21:28;97474.13;;;8.28;82.91
27202;BME280;14717;46.924;15.474;2023-04-26T00:23:54;97478.06;;;8.17;84.35
27202;BME280;14717;46.924;15.474;2023-04-26T00:26:19;97479.22;;;8.06;84.74
27202;BME280;14717;46.924;15.474;2023-04-26T00:28:45;97479.88;;;7.94;85.76
27202;BME280;14717;46.924;15.474;2023-04-26T00:31:14;97479.59;;;7.90;85.47
27202;BME280;14717;46.924;15.474;2023-04-26T00:33:40;97477.41;;;7.92;85.62
27202;BME280;14717;46.924;15.474;2023-04-26T00:36:05;97486.13;;;8.04;83.86
27202;BME280;14717;46.924;15.474;2023-04-26T00:38:31;97478.09;;;8.07;83.49
27202;BME280;14717;46.924;15.474;2023-04-26T00:40:56;97487.69;;;8.10;82.20
27202;BME280;14717;46.924;15.474;2023-04-26T00:43:22;97478.72;;;8.00;81.93
27202;BME280;14717;46.924;15.474;2023-04-26T00:45:48;97483.47;;;7.89;82.99
27202;BME280;14717;46.924;15.474;2023-04-26T00:48:13;97483.22;;;7.86;82.63
27202;BME280;14717;46.924;15.474;2023-04-26T00:50:39;97486.13;;;7.61;82.76
27202;BME280;14717;46.924;15.474;2023-04-26T00:53:06;97488.13;;;7.41;83.04
27202;BME280;14717;46.924;15.474;2023-04-26T00:55:32;97480.47;;;7.43;84.23
27202;BME280;14717;46.924;15.474;2023-04-26T00:57:58;97484.00;;;7.48;84.63
27202;BME280;14717;46.924;15.474;2023-04-26T01:00:23;97472.47;;;7.46;83.66
27202;BME280;14717;46.924;15.474;2023-04-26T01:02:49;97477.41;;;7.44;83.72
27202;BME280;14717;46.924;15.474;2023-04-26T01:05:15;97478.56;;;7.33;83.45
27202;BME280;14717;46.924;15.474;2023-04-26T01:07:40;97474.41;;;7.41;83.81
27202;BME280;14717;46.924;15.474;2023-04-26T01:10:06;97470.81;;;7.45;83.71
27202;BME280;14717;46.924;15.474;2023-04-26T01:12:33;97473.34;;;7.37;83.48
27202;BME280;14717;46.924;15.474;2023-04-26T01:14:59;97483.84;;;7.25;84.13
27202;BME280;14717;46.924;15.474;2023-04-26T01:17:25;97483.84;;;7.20;84.24
27202;BME280;14717;46.924;15.474;2023-04-26T01:19:51;97493.50;;;7.03;84.02
27202;BME280;14717;46.924;15.474;2023-04-26T01:22:17;97490.59;;;6.70;85.97
27202;BME280;14717;46.924;15.474;2023-04-26T01:24:44;97484.81;;;6.71;86.32
27202;BME280;14717;46.924;15.474;2023-04-26T01:27:10;97485.34;;;6.78;86.47
27202;BME280;14717;46.924;15.474;2023-04-26T01:29:36;97491.91;;;6.92;86.98
27202;BME280;14717;46.924;15.474;2023-04-26T01:32:01;97498.47;;;7.01;86.42
27202;BME280;14717;46.924;15.474;2023-04-26T01:34:26;97496.78;;;7.05;86.34
27202;BME280;14717;46.924;15.474;2023-04-26T01:36:52;97504.53;;;6.88;86.48
27202;BME280;14717;46.924;15.474;2023-04-26T01:39:18;97507.81;;;6.95;87.38
27202;BME280;14717;46.924;15.474;2023-04-26T01:41:43;97498.44;;;7.06;86.75
27202;BME280;14717;46.924;15.474;2023-04-26T01:44:08;97509.69;;;7.09;86.85
27202;BME280;14717;46.924;15.474;2023-04-26T01:46:34;97501.47;;;7.09;86.89
27202;BME280;14717;46.924;15.474;2023-04-26T01:48:59;97510.50;;;7.15;87.26
27202;BME280;14717;46.924;15.474;2023-04-26T01:51:24;97510.22;;;7.16;87.48
27202;BME280;14717;46.924;15.474;2023-04-26T01:53:51;97514.66;;;7.07;87.54
27202;BME280;14717;46.924;15.474;2023-04-26T01:56:17;97516.59;;;7.02;87.78
27202;BME280;14717;46.924;15.474;2023-04-26T01:58:42;97523.19;;;7.01;87.95
27202;BME280;14717;46.924;15.474;2023-04-26T02:01:08;97527.03;;;6.85;87.72
27202;BME280;14717;46.924;15.474;2023-04-26T02:03:34;97534.50;;;6.65;88.52
27202;BME280;14717;46.924;15.474;2023-04-26T02:06:00;97530.94;;;6.69;89.21
27202;BME280;14717;46.924;15.474;2023-04-26T02:08:26;97536.16;;;6.66;89.16
27202;BME280;14717;46.924;15.474;2023-04-26T02:10:51;97525.19;;;6.46;89.26
27202;BME280;14717;46.924;15.474;2023-04-26T02:13:17;97530.09;;;6.59;89.38
27202;BME280;14717;46.924;15.474;2023-04-26T02:15:47;97528.50;;;6.28;89.79
27202;BME280;14717;46.924;15.474;2023-04-26T02:18:13;97524.34;;;6.21;91.04
27202;BME280;14717;46.924;15.474;2023-04-26T02:20:43;97533.09;;;6.03;91.39
27202;BME280;14717;46.924;15.474;2023-04-26T02:23:09;97536.97;;;6.07;91.92
27202;BME280;14717;46.924;15.474;2023-04-26T02:25:35;97540.78;;;6.06;91.21
27202;BME280;14717;46.924;15.474;2023-04-26T02:28:01;97529.84;;;6.21;91.07
27202;BME280;14717;46.924;15.474;2023-04-26T02:30:26;97533.97;;;6.18;90.23
27202;BME280;14717;46.924;15.474;2023-04-26T02:32:55;97537.22;;;6.00;90.82
27202;BME280;14717;46.924;15.474;2023-04-26T02:35:21;97534.78;;;6.04;91.41
27202;BME280;14717;46.924;15.474;2023-04-26T02:37:47;97536.69;;;5.93;91.32
27202;BME280;14717;46.924;15.474;2023-04-26T02:40:20;97540.25;;;5.99;91.31
27202;BME280;14717;46.924;15.474;2023-04-26T02:42:46;97532.56;;;6.01;90.69
27202;BME280;14717;46.924;15.474;2023-04-26T02:45:11;97537.47;;;5.89;91.53
27202;BME280;14717;46.924;15.474;2023-04-26T02:47:37;97530.91;;;5.90;91.09
27202;BME280;14717;46.924;15.474;2023-04-26T02:50:07;97519.38;;;5.83;90.97
27202;BME280;14717;46.924;15.474;2023-04-26T02:52:33;97530.34;;;5.88;90.76
27202;BME280;14717;46.924;15.474;2023-04-26T02:54:59;97535.28;;;5.91;91.27
27202;BME280;14717;46.924;15.474;2023-04-26T02:57:25;97537.50;;;6.09;91.72
27202;BME280;14717;46.924;15.474;2023-04-26T02:59:50;97532.03;;;6.09;91.09
27202;BME280;14717;46.924;15.474;2023-04-26T03:02:16;97530.69;;;6.16;91.67
27202;BME280;14717;46.924;15.474;2023-04-26T03:04:41;97528.22;;;6.25;91.06
27202;BME280;14717;46.924;15.474;2023-04-26T03:07:07;97515.03;;;6.27;90.63
27202;BME280;14717;46.924;15.474;2023-04-26T03:09:32;97536.44;;;6.10;90.43
27202;BME280;14717;46.924;15.474;2023-04-26T03:11:59;97541.31;;;5.88;91.84
27202;BME280;14717;46.924;15.474;2023-04-26T03:14:24;97545.63;;;5.64;92.83
27202;BME280;14717;46.924;15.474;2023-04-26T03:16:50;97555.13;;;5.47;94.06
27202;BME280;14717;46.924;15.474;2023-04-26T03:19:16;97552.41;;;5.52;94.40
27202;BME280;14717;46.924;15.474;2023-04-26T03:21:41;97549.97;;;5.55;94.00
27202;BME280;14717;46.924;15.474;2023-04-26T03:24:06;97554.91;;;5.58;94.41
27202;BME280;14717;46.924;15.474;2023-04-26T03:26:32;97549.25;;;5.85;94.06
27202;BME280;14717;46.924;15.474;2023-04-26T03:28:57;97553.41;;;5.97;92.91
27202;BME280;14717;46.924;15.474;2023-04-26T03:31:23;97554.75;;;5.94;92.68
27202;BME280;14717;46.924;15.474;2023-04-26T03:33:48;97556.41;;;5.86;92.26
27202;BME280;14717;46.924;15.474;2023-04-26T03:36:14;97557.19;;;5.76;93.26
27202;BME280;14717;46.924;15.474;2023-04-26T03:38:39;97561.88;;;5.86;92.38
27202;BME280;14717;46.924;15.474;2023-04-26T03:41:06;97569.22;;;5.70;92.13
27202;BME280;14717;46.924;15.474;2023-04-26T03:43:31;97573.63;;;5.81;91.35
27202;BME280;14717;46.924;15.474;2023-04-26T03:45:56;97571.47;;;5.88;91.74
27202;BME280;14717;46.924;15.474;2023-04-26T03:48:22;97569.31;;;6.00;92.65
27202;BME280;14717;46.924;15.474;2023-04-26T03:50:47;97577.28;;;6.16;91.77
27202;BME280;14717;46.924;15.474;2023-04-26T03:53:12;97580.88;;;6.27;91.25
27202;BME280;14717;46.924;15.474;2023-04-26T03:55:38;97576.19;;;6.22;91.05
27202;BME280;14717;46.924;15.474;2023-04-26T03:58:03;97574.81;;;6.15;91.42
27202;BME280;14717;46.924;15.474;2023-04-26T04:00:33;97584.41;;;6.07;91.42
27202;BME280;14717;46.924;15.474;2023-04-26T04:02:59;97581.94;;;6.11;91.90
27202;BME280;14717;46.924;15.474;2023-04-26T04:05:24;97590.44;;;6.19;91.81
27202;BME280;14717;46.924;15.474;2023-04-26T04:07:50;97600.81;;;6.02;92.41
27202;BME280;14717;46.924;15.474;2023-04-26T04:10:16;97608.50;;;5.95;92.77
27202;BME280;14717;46.924;15.474;2023-04-26T04:12:41;97609.06;;;6.07;93.26
27202;BME280;14717;46.924;15.474;2023-04-26T04:15:07;97613.22;;;6.20;93.12
27202;BME280;14717;46.924;15.474;2023-04-26T04:17:33;97619.78;;;6.19;93.54
27202;BME280;14717;46.924;15.474;2023-04-26T04:20:00;97610.50;;;6.35;92.96
27202;BME280;14717;46.924;15.474;2023-04-26T04:22:26;97616.00;;;6.44;91.81
27202;BME280;14717;46.924;15.474;2023-04-26T04:24:52;97616.56;;;6.56;91.23
27202;BME280;14717;46.924;15.474;2023-04-26T04:27:18;97624.78;;;6.61;90.60
27202;BME280;14717;46.924;15.474;2023-04-26T04:29:45;97625.88;;;6.50;90.64
27202;BME280;14717;46.924;15.474;2023-04-26T04:32:11;97619.28;;;6.71;90.48
27202;BME280;14717;46.924;15.474;2023-04-26T04:34:37;97626.44;;;6.82;90.71
27202;BME280;14717;46.924;15.474;2023-04-26T04:37:03;97626.16;;;6.78;89.87
27202;BME280;14717;46.924;15.474;2023-04-26T04:39:28;97632.47;;;6.84;90.20
27202;BME280;14717;46.924;15.474;2023-04-26T04:41:54;97633.00;;;6.91;89.18
27202;BME280;14717;46.924;15.474;2023-04-26T04:44:19;97633.56;;;6.98;88.29
27202;BME280;14717;46.924;15.474;2023-04-26T04:46:45;97638.25;;;6.87;88.96
27202;BME280;14717;46.924;15.474;2023-04-26T04:49:11;97641.78;;;6.93;89.24
27202;BME280;14717;46.924;15.474;2023-04-26T04:51:37;97635.22;;;7.09;89.25
27202;BME280;14717;46.924;15.474;2023-04-26T04:54:14;97634.06;;;7.19;88.52
27202;BME280;14717;46.924;15.474;2023-04-26T04:56:39;97639.56;;;7.24;89.19
27202;BME280;14717;46.924;15.474;2023-04-26T04:59:06;97641.19;;;7.35;88.79
27202;BME280;14717;46.924;15.474;2023-04-26T05:01:32;97644.19;;;7.44;88.45
27202;BME280;14717;46.924;15.474;2023-04-26T05:03:58;97645.28;;;7.58;87.42
27202;BME280;14717;46.924;15.474;2023-04-26T05:06:25;97641.13;;;7.65;86.26
27202;BME280;14717;46.924;15.474;2023-04-26T05:08:52;97641.63;;;7.72;85.91
27202;BME280;14717;46.924;15.474;2023-04-26T05:11:17;97651.28;;;7.74;85.60
27202;BME280;14717;46.924;15.474;2023-04-26T05:13:42;97657.56;;;7.80;85.74
27202;BME280;14717;46.924;15.474;2023-04-26T05:16:08;97653.75;;;7.76;84.50
27202;BME280;14717;46.924;15.474;2023-04-26T05:18:33;97659.72;;;7.93;84.29
27202;BME280;14717;46.924;15.474;2023-04-26T05:20:58;97649.75;;;8.02;83.28
27202;BME280;14717;46.924;15.474;2023-04-26T05:23:24;97645.91;;;8.07;84.26
27202;BME280;14717;46.924;15.474;2023-04-26T05:25:49;97648.13;;;8.10;83.50
27202;BME280;14717;46.924;15.474;2023-04-26T05:28:15;97653.59;;;8.15;83.08
27202;BME280;14717;46.924;15.474;2023-04-26T05:30:41;97663.47;;;8.16;81.54
27202;BME280;14717;46.924;15.474;2023-04-26T05:33:07;97671.16;;;8.24;82.50
27202;BME280;14717;46.924;15.474;2023-04-26T05:35:32;97672.75;;;8.35;81.68
27202;BME280;14717;46.924;15.474;2023-04-26T05:37:57;97672.72;;;8.40;82.70
27202;BME280;14717;46.924;15.474;2023-04-26T05:40:23;97683.78;;;8.30;82.75
27202;BME280;14717;46.924;15.474;2023-04-26T05:42:49;97675.78;;;8.34;81.93
27202;BME280;14717;46.924;15.474;2023-04-26T05:45:15;97684.28;;;8.37;82.87
27202;BME280;14717;46.924;15.474;2023-04-26T05:47:40;97683.44;;;8.47;82.53
27202;BME280;14717;46.924;15.474;2023-04-26T05:50:06;97680.56;;;8.66;84.09
27202;BME280;14717;46.924;15.474;2023-04-26T05:52:32;97692.78;;;8.89;82.79
27202;BME280;14717;46.924;15.474;2023-04-26T05:54:57;97698.31;;;8.84;83.83
27202;BME280;14717;46.924;15.474;2023-04-26T05:57:23;97700.72;;;8.95;84.44
27202;BME280;14717;46.924;15.474;2023-04-26T05:59:48;97708.59;;;9.11;83.82
27202;BME280;14717;46.924;15.474;2023-04-26T06:02:13;97714.03;;;9.21;82.60
27202;BME280;14717;46.924;15.474;2023-04-26T06:04:39;97714.84;;;9.22;81.76
27202;BME280;14717;46.924;15.474;2023-04-26T06:07:04;97721.69;;;9.29;81.41
27202;BME280;14717;46.924;15.474;2023-04-26T06:09:31;97728.00;;;9.30;80.63
27202;BME280;14717;46.924;15.474;2023-04-26T06:11:56;97724.97;;;9.31;80.90
27202;BME280;14717;46.924;15.474;2023-04-26T06:14:22;97722.72;;;9.33;80.36
27202;BME280;14717;46.924;15.474;2023-04-26T06:16:47;97726.63;;;9.32;80.86
27202;BME280;14717;46.924;15.474;2023-04-26T06:19:12;97731.25;;;9.36;80.98
27202;BME280;14717;46.924;15.474;2023-04-26T06:21:38;97718.50;;;9.45;80.10
27202;BME280;14717;46.924;15.474;2023-04-26T06:24:04;97711.63;;;9.43;80.08
27202;BME280;14717;46.924;15.474;2023-04-26T06:26:29;97702.34;;;9.34;80.00
27202;BME280;14717;46.924;15.474;2023-04-26T06:28:55;97692.78;;;9.55;79.49
27202;BME280;14717;46.924;15.474;2023-04-26T06:31:21;97708.34;;;9.97;78.36
27202;BME280;14717;46.924;15.474;2023-04-26T06:33:47;97699.97;;;10.30;75.79
27202;BME280;14717;46.924;15.474;2023-04-26T06:36:12;97702.25;;;10.47;73.74
27202;BME280;14717;46.924;15.474;2023-04-26T06:38:37;97710.47;;;10.52;72.95
27202;BME280;14717;46.924;15.474;2023-04-26T06:41:03;97714.66;;;10.86;73.52
27202;BME280;14717;46.924;15.474;2023-04-26T06:43:28;97713.69;;;11.13;72.00
27202;BME280;14717;46.924;15.474;2023-04-26T06:45:53;97717.56;;;11.31;70.36
27202;BME280;14717;46.924;15.474;2023-04-26T06:48:19;97711.38;;;11.39;67.66
27202;BME280;14717;46.924;15.474;2023-04-26T06:50:44;97700.59;;;11.37;64.61
27202;BME280;14717;46.924;15.474;2023-04-26T06:53:10;97703.88;;;11.57;66.41
27202;BME280;14717;46.924;15.474;2023-04-26T06:55:35;97701.84;;;11.76;63.45
27202;BME280;14717;46.924;15.474;2023-04-26T06:58:01;97707.31;;;11.49;63.43
27202;BME280;14717;46.924;15.474;2023-04-26T07:00:26;97707.75;;;11.56;64.40
27202;BME280;14717;46.924;15.474;2023-04-26T07:02:52;97701.19;;;11.52;62.52
27202;BME280;14717;46.924;15.474;2023-04-26T07:05:18;97710.63;;;11.65;63.49
27202;BME280;14717;46.924;15.474;2023-04-26T07:07:43;97717.22;;;11.69;63.85
27202;BME280;14717;46.924;15.474;2023-04-26T07:10:09;97716.88;;;11.89;64.09
27202;BME280;14717;46.924;15.474;2023-04-26T07:12:35;97713.19;;;11.93;62.79
27202;BME280;14717;46.924;15.474;2023-04-26T07:15:00;97717.84;;;11.79;61.74
27202;BME280;14717;46.924;15.474;2023-04-26T07:17:26;97712.03;;;11.94;62.34
27202;BME280;14717;46.924;15.474;2023-04-26T07:19:51;97711.75;;;12.09;61.58
27202;BME280;14717;46.924;15.474;2023-04-26T07:22:17;97709.53;;;12.37;60.90
27202;BME280;14717;46.924;15.474;2023-04-26T07:24:42;97720.19;;;12.57;59.38
27202;BME280;14717;46.924;15.474;2023-04-26T07:27:07;97720.28;;;12.26;58.21
27202;BME280;14717;46.924;15.474;2023-04-26T07:29:33;97723.69;;;12.23;58.18
27202;BME280;14717;46.924;15.474;2023-04-26T07:31:58;97714.78;;;12.39;59.75
27202;BME280;14717;46.924;15.474;2023-04-26T07:34:24;97707.38;;;12.08;58.87
27202;BME280;14717;46.924;15.474;2023-04-26T07:36:49;97715.88;;;12.51;59.35
27202;BME280;14717;46.924;15.474;2023-04-26T07:39:15;97717.09;;;12.45;58.03
27202;BME280;14717;46.924;15.474;2023-04-26T07:41:40;97713.19;;;13.00;58.62
27202;BME280;14717;46.924;15.474;2023-04-26T07:44:06;97717.09;;;12.99;57.10
27202;BME280;14717;46.924;15.474;2023-04-26T07:46:32;97718.66;;;13.26;55.80
27202;BME280;14717;46.924;15.474;2023-04-26T07:48:59;97725.75;;;13.54;57.01
27202;BME280;14717;46.924;15.474;2023-04-26T07:51:24;97726.78;;;13.23;54.88
27202;BME280;14717;46.924;15.474;2023-04-26T07:53:50;97734.13;;;12.92;57.65
27202;BME280;14717;46.924;15.474;2023-04-26T07:56:16;97726.97;;;13.26;55.65
27202;BME280;14717;46.924;15.474;2023-04-26T07:58:41;97723.03;;;13.41;55.71
27202;BME280;14717;46.924;15.474;2023-04-26T08:01:06;97742.03;;;13.69;55.72
27202;BME280;14717;46.924;15.474;2023-04-26T08:03:32;97735.69;;;13.55;54.29
27202;BME280;14717;46.924;15.474;2023-04-26T08:05:58;97729.41;;;13.63;54.35
27202;BME280;14717;46.924;15.474;2023-04-26T08:08:27;97731.41;;;13.49;54.46
27202;BME280;14717;46.924;15.474;2023-04-26T08:10:53;97741.56;;;13.54;53.65
27202;BME280;14717;46.924;15.474;2023-04-26T08:13:18;97744.16;;;13.94;53.02
27202;BME280;14717;46.924;15.474;2023-04-26T08:15:44;97734.13;;;14.06;55.14
27202;BME280;14717;46.924;15.474;2023-04-26T08:18:09;97731.41;;;13.49;52.78
27202;BME280;14717;46.924;15.474;2023-04-26T08:20:35;97741.47;;;13.23;56.26
27202;BME280;14717;46.924;15.474;2023-04-26T08:23:00;97727.47;;;13.72;53.46
27202;BME280;14717;46.924;15.474;2023-04-26T08:25:26;97734.88;;;13.76;50.96
27202;BME280;14717;46.924;15.474;2023-04-26T08:27:51;97735.38;;;14.00;52.78
27202;BME280;14717;46.924;15.474;2023-04-26T08:30:18;97732.28;;;14.02;51.84
27202;BME280;14717;46.924;15.474;2023-04-26T08:32:44;97739.38;;;13.86;52.17
27202;BME280;14717;46.924;15.474;2023-04-26T08:35:10;97733.41;;;13.35;51.75
27202;BME280;14717;46.924;15.474;2023-04-26T08:37:35;97741.47;;;13.80;51.20
27202;BME280;14717;46.924;15.474;2023-04-26T08:40:03;97737.13;;;14.18;51.36
27202;BME280;14717;46.924;15.474;2023-04-26T08:42:29;97744.25;;;14.32;48.88
27202;BME280;14717;46.924;15.474;2023-04-26T08:44:59;97752.97;;;14.47;47.80
27202;BME280;14717;46.924;15.474;2023-04-26T08:47:39;97745.84;;;14.63;50.42
27202;BME280;14717;46.924;15.474;2023-04-26T08:50:06;97745.53;;;14.26;49.76
27202;BME280;14717;46.924;15.474;2023-04-26T08:52:33;97750.13;;;14.61;49.28
27202;BME280;14717;46.924;15.474;2023-04-26T08:54:59;97752.94;;;14.78;47.89
27202;BME280;14717;46.924;15.474;2023-04-26T08:57:25;97747.88;;;14.80;48.95
27202;BME280;14717;46.924;15.474;2023-04-26T08:59:52;97745.41;;;14.78;48.63
27202;BME280;14717;46.924;15.474;2023-04-26T09:02:19;97748.22;;;14.87;48.55
27202;BME280;14717;46.924;15.474;2023-04-26T09:04:46;97753.03;;;15.11;47.19
27202;BME280;14717;46.924;15.474;2023-04-26T09:07:19;97747.88;;;15.18;48.06
27202;BME280;14717;46.924;15.474;2023-04-26T09:09:47;97750.22;;;15.03;46.38
27202;BME280;14717;46.924;15.474;2023-04-26T09:12:18;97748.19;;;14.70;45.44
27202;BME280;14717;46.924;15.474;2023-04-26T09:14:45;97747.19;;;14.36;45.88
27202;BME280;14717;46.924;15.474;2023-04-26T09:17:30;97749.84;;;14.10;47.07
27202;BME280;14717;46.924;15.474;2023-04-26T09:19:57;97740.88;;;14.13;47.36
27202;BME280;14717;46.924;15.474;2023-04-26T09:22:33;97741.25;;;14.20;48.05
27202;BME280;14717;46.924;15.474;2023-04-26T09:25:01;97741.25;;;14.20;49.55
27202;BME280;14717;46.924;15.474;2023-04-26T09:27:32;97731.13;;;14.02;48.51
27202;BME280;14717;46.924;15.474;2023-04-26T09:32:26;97740.50;;;13.63;48.60
27202;BME280;14717;46.924;15.474;2023-04-26T09:34:53;97745.81;;;13.73;49.64
27202;BME280;14717;46.924;15.474;2023-04-26T09:37:18;97733.19;;;14.10;47.54
27202;BME280;14717;46.924;15.474;2023-04-26T09:39:43;97742.38;;;13.98;47.23
27202;BME280;14717;46.924;15.474;2023-04-26T09:42:09;97736.16;;;13.70;48.30
27202;BME280;14717;46.924;15.474;2023-04-26T09:44:38;97722.19;;;14.05;50.48
27202;BME280;14717;46.924;15.474;2023-04-26T09:47:08;97734.34;;;14.48;49.94
27202;BME280;14717;46.924;15.474;2023-04-26T09:49:50;97720.97;;;14.58;49.03
27202;BME280;14717;46.924;15.474;2023-04-26T09:52:19;97726.09;;;14.73;50.21
27202;BME280;14717;46.924;15.474;2023-04-26T09:54:49;97725.44;;;15.32;49.63
27202;BME280;14717;46.924;15.474;2023-04-26T09:57:19;97727.59;;;15.60;47.89
27202;BME280;14717;46.924;15.474;2023-04-26T09:59:53;97719.66;;;15.95;45.60
27202;BME280;14717;46.924;15.474;2023-04-26T10:02:25;97721.44;;;16.08;45.77
27202;BME280;14717;46.924;15.474;2023-04-26T10:04:55;97710.81;;;15.93;46.26
27202;BME280;14717;46.924;15.474;2023-04-26T10:07:22;97708.22;;;15.21;48.45
27202;BME280;14717;46.924;15.474;2023-04-26T10:09:49;97714.06;;;15.11;48.28
27202;BME280;14717;46.924;15.474;2023-04-26T10:12:15;97705.97;;;15.48;45.49
27202;BME280;14717;46.924;15.474;2023-04-26T10:14:41;97711.78;;;15.13;45.01
27202;BME280;14717;46.924;15.474;2023-04-26T10:17:07;97713.09;;;15.07;45.24
27202;BME280;14717;46.924;15.474;2023-04-26T10:19:33;97701.25;;;14.93;47.71
27202;BME280;14717;46.924;15.474;2023-04-26T10:22:03;97709.44;;;14.82;47.14
27202;BME280;14717;46.924;15.474;2023-04-26T10:24:29;97712.41;;;14.93;49.68
27202;BME280;14717;46.924;15.474;2023-04-26T10:26:55;97704.25;;;15.05;46.88
27202;BME280;14717;46.924;15.474;2023-04-26T10:29:30;97699.66;;;15.01;47.29
27202;BME280;14717;46.924;15.474;2023-04-26T10:32:11;97700.03;;;15.25;45.85
27202;BME280;14717;46.924;15.474;2023-04-26T10:34:42;97696.88;;;14.92;49.95
27202;BME280;14717;46.924;15.474;2023-04-26T10:37:12;97695.22;;;14.36;50.90
27202;BME280;14717;46.924;15.474;2023-04-26T10:39:39;97700.78;;;14.36;52.59
27202;BME280;14717;46.924;15.474;2023-04-26T10:42:27;97698.72;;;13.68;52.57
27202;BME280;14717;46.924;15.474;2023-04-26T10:44:56;97700.28;;;13.39;54.95
27202;BME280;14717;46.924;15.474;2023-04-26T10:49:48;97699.72;;;13.07;58.05
27202;BME280;14717;46.924;15.474;2023-04-26T10:52:14;97696.16;;;13.50;54.02
27202;BME280;14717;46.924;15.474;2023-04-26T10:57:19;97690.50;;;14.06;51.73
27202;BME280;14717;46.924;15.474;2023-04-26T11:03:05;97690.00;;;14.04;48.99
27202;BME280;14717;46.924;15.474;2023-04-26T11:05:37;97686.59;;;14.07;48.23
27202;BME280;14717;46.924;15.474;2023-04-26T11:10:29;97686.41;;;14.98;44.43
27202;BME280;14717;46.924;15.474;2023-04-26T11:13:02;97683.44;;;14.39;46.11
27202;BME280;14717;46.924;15.474;2023-04-26T11:15:29;97676.47;;;15.22;47.29
27202;BME280;14717;46.924;15.474;2023-04-26T11:17:55;97664.97;;;15.66;48.04
27202;BME280;14717;46.924;15.474;2023-04-26T11:20:20;97663.63;;;15.88;46.14
27202;BME280;14717;46.924;15.474;2023-04-26T11:22:46;97659.13;;;15.42;45.88
27202;BME280;14717;46.924;15.474;2023-04-26T11:25:11;97649.06;;;15.83;45.54
27202;BME280;14717;46.924;15.474;2023-04-26T11:27:37;97657.25;;;15.88;44.02
27202;BME280;14717;46.924;15.474;2023-04-26T11:30:03;97658.34;;;16.04;42.99
27202;BME280;14717;46.924;15.474;2023-04-26T11:32:29;97652.72;;;16.29;43.29
27202;BME280;14717;46.924;15.474;2023-04-26T11:34:58;97656.25;;;15.92;43.84
27202;BME280;14717;46.924;15.474;2023-04-26T11:37:24;97650.34;;;15.85;49.19
27202;BME280;14717;46.924;15.474;2023-04-26T11:39:50;97659.84;;;16.47;42.92
27202;BME280;14717;46.924;15.474;2023-04-26T11:42:15;97649.78;;;16.17;44.36
27202;BME280;14717;46.924;15.474;2023-04-26T11:44:41;97655.94;;;15.77;41.89
27202;BME280;14717;46.924;15.474;2023-04-26T11:47:06;97661.22;;;15.70;42.53
27202;BME280;14717;46.924;15.474;2023-04-26T11:49:34;97660.84;;;15.80;41.56
27202;BME280;14717;46.924;15.474;2023-04-26T11:52:01;97658.06;;;15.80;43.46
27202;BME280;14717;46.924;15.474;2023-04-26T11:54:32;97666.22;;;15.93;41.84
27202;BME280;14717;46.924;15.474;2023-04-26T11:56:58;97666.00;;;15.53;43.65
27202;BME280;14717;46.924;15.474;2023-04-26T11:59:24;97678.00;;;14.73;47.19
27202;BME280;14717;46.924;15.474;2023-04-26T12:01:50;97680.91;;;14.51;49.56
27202;BME280;14717;46.924;15.474;2023-04-26T12:04:16;97679.00;;;14.30;51.58
27202;BME280;14717;46.924;15.474;2023-04-26T12:06:42;97671.09;;;14.62;49.67
27202;BME280;14717;46.924;15.474;2023-04-26T12:09:08;97669.06;;;14.37;50.67
27202;BME280;14717;46.924;15.474;2023-04-26T12:11:35;97669.97;;;14.63;51.04
27202;BME280;14717;46.924;15.474;2023-04-26T12:14:01;97661.75;;;15.30;49.62
27202;BME280;14717;46.924;15.474;2023-04-26T12:16:26;97644.59;;;15.90;48.09
27202;BME280;14717;46.924;15.474;2023-04-26T12:18:52;97641.75;;;16.16;45.32
27202;BME280;14717;46.924;15.474;2023-04-26T12:21:18;97650.66;;;16.01;44.74
27202;BME280;14717;46.924;15.474;2023-04-26T12:23:44;97646.19;;;16.08;43.87
27202;BME280;14717;46.924;15.474;2023-04-26T12:26:12;97644.78;;;16.39;43.56
27202;BME280;14717;46.924;15.474;2023-04-26T12:28:38;97644.06;;;16.51;42.78
27202;BME280;14717;46.924;15.474;2023-04-26T12:31:04;97643.22;;;16.59;42.13
27202;BME280;14717;46.924;15.474;2023-04-26T12:33:30;97645.44;;;16.73;42.55
27202;BME280;14717;46.924;15.474;2023-04-26T12:35:57;97635.47;;;17.13;42.24
27202;BME280;14717;46.924;15.474;2023-04-26T12:38:24;97637.94;;;16.86;39.71
27202;BME280;14717;46.924;15.474;2023-04-26T12:40:50;97632.16;;;16.91;41.73
27202;BME280;14717;46.924;15.474;2023-04-26T12:43:15;97629.69;;;17.18;40.17
27202;BME280;14717;46.924;15.474;2023-04-26T12:45:41;97645.31;;;16.33;39.05
27202;BME280;14717;46.924;15.474;2023-04-26T12:48:06;97632.72;;;16.10;41.83
27202;BME280;14717;46.924;15.474;2023-04-26T12:50:31;97628.97;;;16.52;39.54
27202;BME280;14717;46.924;15.474;2023-04-26T12:52:57;97631.28;;;16.78;42.09
27202;BME280;14717;46.924;15.474;2023-04-26T12:55:22;97629.13;;;16.55;40.73
27202;BME280;14717;46.924;15.474;2023-04-26T12:57:48;97628.03;;;16.76;39.33
27202;BME280;14717;46.924;15.474;2023-04-26T13:00:14;97621.50;;;16.64;39.47
27202;BME280;14717;46.924;15.474;2023-04-26T13:02:41;97624.75;;;16.46;39.79
27202;BME280;14717;46.924;15.474;2023-04-26T13:05:06;97619.44;;;16.24;41.60